Gustavsfors, Sweden

7:50 AM CEST on September 19, 2014 (GMT +0200)
Jonsarna, Ransbysatter, Varmland, Sweden | Change Station
CLOSE
Current Station
Personal Weather Station
Location: Värmland County, VäRMLAND COUNTY
Elevation: 427 ft
Nearby Weather Stations

Elev 427 ft 60.03 °N, 13.24 °E | Updated 3 minutes ago

Patches of Fog
Patches Fog
39.6 °F
Feels Like 40 °F
N
0.0
Wind Variable Wind from North
Gusts 0.0 mph

Today
High -- | Low -- °F
--% Chance of Precip.
Yesterday
High -- | Low -- °F
Precip. -- in
6:41 AM 7:14 PM
Waning Crescent, 21% visible
Pressure 30.12 in
Visibility 0.3 miles
Clouds Overcast 200 ft
Windchill 40 °F
Dew Point 39 °F
Humidity 98%
Rainfall 0.00 in
Snow Depth Not available.
UV 1.0 out of 12
Pollen Not available.
Air Quality Not available.
Flu Activity Not available.
METAR ESOK 190520Z 02003KT 0450 R03/0800V1100N R21/P1500N BCFG OVC002 08/08 Q1020

More Conditions Fewer Conditions

Pressure 30.12 in
Visibility 0.3 miles
Clouds Overcast 200 ft
Windchill 40 °F
Dew Point 39 °F
Humidity 98%
Rainfall 0.00 in
Snow Depth Not available.
UV 1.0 out of 12
Pollen Not available.
Air Quality Not available.
Flu Activity Not available.
METAR ESOK 190520Z 02003KT 0450 R03/0800V1100N R21/P1500N BCFG OVC002 08/08 Q1020

More Conditions Fewer Conditions

10-Day Weather Forecast

Almanac

Astronomy

Sep. 19, 2014 Rise Set
Actual Time 6:41 AM CEST 7:14 PM CEST
Civil Twilight 5:59 AM CEST 7:56 PM CEST
Nautical Twilight 5:07 AM CEST 8:47 PM CEST
Astronomical Twilight 4:10 AM CEST 9:43 PM CEST
Moon 1:15 AM CEST 5:20 PM CEST
Length of Visible Light 13h 57m
Length of Day
12h 32m
Tomorrow will be 5m 24s shorter.
Waning Crescent, 21% of the Moon is Illuminated
Today
Waning Crescent
Sep 24
New
Oct 1
First Quarter
Oct 8
Full
Oct 15
Last Quarter

Yesterday's Extremes

Country Highs Country Lows

Community

WunderPhotos

Upload Photos

1,754,573 photos uploaded!

Nearby

Snow Depth

Not available.

Earthquake Activity

City Distance Mag. Time & Date
No recent earthquake activity has been reported nearby.
Minimum magnitude displayed is 2.5.

Coastal Water Temperatures

Place Temperature
No Stations Reporting

Nearby Weather Stations